createdAt,value
2023-02-25T00:00:16.349Z,-3
2023-02-25T00:01:22.612Z,-3
2023-02-25T00:02:28.891Z,-3
2023-02-25T00:03:35.160Z,-3
2023-02-25T00:04:41.429Z,-3
2023-02-25T00:05:47.702Z,-3
2023-02-25T00:06:53.991Z,-3
2023-02-25T00:07:59.285Z,-4
2023-02-25T00:09:04.620Z,-3
2023-02-25T00:10:09.854Z,-3
2023-02-25T00:11:15.137Z,-3
2023-02-25T00:12:21.504Z,-3
2023-02-25T00:13:27.895Z,-4
2023-02-25T00:14:34.058Z,-3
2023-02-25T00:15:40.231Z,-3
2023-02-25T00:16:46.530Z,-3
2023-02-25T00:17:52.773Z,-3
2023-02-25T00:18:59.047Z,-3
2023-02-25T00:20:05.323Z,-3
2023-02-25T00:21:11.640Z,-3
2023-02-25T00:22:17.907Z,-3
2023-02-25T00:23:24.159Z,-4
2023-02-25T00:24:30.462Z,-4
2023-02-25T00:25:35.702Z,-4
2023-02-25T00:26:41.967Z,-5
2023-02-25T00:27:48.238Z,-3
2023-02-25T00:28:54.532Z,-3
2023-02-25T00:30:00.788Z,-5
2023-02-25T00:31:07.053Z,-4
2023-02-25T00:32:13.349Z,0
2023-02-25T00:33:18.625Z,-5
2023-02-25T00:34:23.917Z,-3
2023-02-25T00:35:29.216Z,-4
2023-02-25T00:36:34.638Z,-3
2023-02-25T00:37:40.786Z,-3
2023-02-25T00:38:47.067Z,-5
2023-02-25T00:39:53.322Z,-4
2023-02-25T00:40:59.585Z,-4
2023-02-25T00:42:05.866Z,-4
2023-02-25T00:43:12.132Z,-3
2023-02-25T00:44:18.412Z,-3
2023-02-25T00:45:24.677Z,-3
2023-02-25T00:46:30.951Z,-3
2023-02-25T00:47:37.229Z,-5
2023-02-25T00:48:43.524Z,-4
2023-02-25T00:49:49.766Z,-6
2023-02-25T00:50:55.066Z,-4
2023-02-25T00:52:01.318Z,-5
2023-02-25T00:53:07.598Z,-4
2023-02-25T00:54:13.875Z,-4
2023-02-25T00:55:20.174Z,-4
2023-02-25T00:56:26.443Z,-4
2023-02-25T00:57:32.710Z,-4
2023-02-25T00:58:37.994Z,-4
2023-02-25T00:59:43.271Z,-6
2023-02-25T01:00:48.650Z,-4
2023-02-25T01:01:53.863Z,-4
2023-02-25T01:03:00.129Z,-3
2023-02-25T01:04:06.406Z,-6
2023-02-25T01:05:12.696Z,-6
2023-02-25T01:06:18.936Z,-5
2023-02-25T01:07:25.225Z,-3
2023-02-25T01:08:31.524Z,-5
2023-02-25T01:09:37.790Z,-7
2023-02-25T01:10:44.049Z,-6
2023-02-25T01:11:50.301Z,-4
2023-02-25T01:12:56.579Z,-3
2023-02-25T01:14:02.845Z,-3
2023-02-25T01:15:09.158Z,-5
2023-02-25T01:16:14.406Z,-4
2023-02-25T01:17:20.682Z,-5
2023-02-25T01:18:26.959Z,-4
2023-02-25T01:19:33.230Z,-6
2023-02-25T01:20:39.509Z,-4
2023-02-25T01:21:45.765Z,-5
2023-02-25T01:22:52.035Z,-3
2023-02-25T01:23:57.342Z,-4
2023-02-25T01:25:02.624Z,-5
2023-02-25T01:26:07.931Z,-6
2023-02-25T01:27:13.213Z,-6
2023-02-25T01:28:19.481Z,-5
2023-02-25T01:29:25.782Z,-6
2023-02-25T01:30:32.128Z,-6
2023-02-25T01:31:38.301Z,-5
2023-02-25T01:32:44.571Z,-6
2023-02-25T01:33:50.856Z,-6
2023-02-25T01:34:57.116Z,-6
2023-02-25T01:36:03.404Z,-6
2023-02-25T01:37:09.662Z,-6
2023-02-25T01:38:15.933Z,-6
2023-02-25T01:39:22.206Z,-7
2023-02-25T01:40:28.503Z,-7
2023-02-25T01:41:33.766Z,-6
2023-02-25T01:42:40.039Z,-5
2023-02-25T01:43:46.312Z,-6
2023-02-25T01:44:52.588Z,-6
2023-02-25T01:45:58.871Z,-6
2023-02-25T01:47:05.127Z,-6
2023-02-25T01:48:11.480Z,-6
2023-02-25T01:49:16.701Z,-5
2023-02-25T01:50:22.000Z,-5
2023-02-25T01:51:27.291Z,-6
2023-02-25T01:52:32.574Z,-6
2023-02-25T01:53:38.844Z,-6
2023-02-25T01:54:45.127Z,-6
2023-02-25T01:55:51.404Z,-6
2023-02-25T01:56:57.663Z,-8
2023-02-25T01:58:03.937Z,-6
2023-02-25T01:59:10.213Z,-7
2023-02-25T02:00:16.507Z,-7
2023-02-25T02:01:22.758Z,-6
2023-02-25T02:02:29.077Z,-8
2023-02-25T02:03:35.299Z,-6
2023-02-25T02:04:41.575Z,-7
2023-02-25T02:05:47.847Z,-6
2023-02-25T02:06:53.128Z,-6
2023-02-25T02:07:59.392Z,-6
2023-02-25T02:09:05.671Z,-6
2023-02-25T02:10:11.943Z,-6
2023-02-25T02:11:18.220Z,-6
2023-02-25T02:12:24.488Z,-4
2023-02-25T02:13:30.770Z,-5
2023-02-25T02:14:36.049Z,-4
2023-02-25T02:15:41.355Z,-6
2023-02-25T02:16:47.645Z,-6
2023-02-25T02:17:53.892Z,-6
2023-02-25T02:18:59.192Z,-6
2023-02-25T02:20:04.482Z,-5
2023-02-25T02:21:10.754Z,-6
2023-02-25T02:22:17.022Z,-6
2023-02-25T02:23:23.354Z,-6
2023-02-25T02:24:29.563Z,-8
2023-02-25T02:25:35.836Z,-6
2023-02-25T02:26:42.104Z,-6
2023-02-25T02:27:48.383Z,-6
2023-02-25T02:28:54.650Z,-7
2023-02-25T02:30:00.927Z,-6
2023-02-25T02:31:07.200Z,-7
2023-02-25T02:32:13.455Z,-6
2023-02-25T02:33:19.741Z,-6
2023-02-25T02:34:25.045Z,-6
2023-02-25T02:35:31.297Z,-7
2023-02-25T02:36:37.566Z,-7
2023-02-25T02:37:43.850Z,-6
2023-02-25T02:38:50.118Z,-6
2023-02-25T02:39:56.393Z,-6
2023-02-25T02:41:02.665Z,-6
2023-02-25T02:42:07.966Z,-6
2023-02-25T02:43:13.238Z,-9
2023-02-25T02:44:18.568Z,-6
2023-02-25T02:45:23.831Z,-6
2023-02-25T02:46:30.111Z,-8
2023-02-25T02:47:36.376Z,-8
2023-02-25T02:48:42.653Z,-7
2023-02-25T02:49:48.920Z,-6
2023-02-25T02:50:55.189Z,-7
2023-02-25T02:52:01.463Z,-7
2023-02-25T02:53:07.731Z,-7
2023-02-25T02:54:14.012Z,-7
2023-02-25T02:55:20.272Z,-6
2023-02-25T02:56:26.563Z,-8
2023-02-25T02:57:32.819Z,-7
2023-02-25T02:58:39.091Z,-8
2023-02-25T02:59:44.442Z,-7
2023-02-25T03:00:50.650Z,-7
2023-02-25T03:01:56.920Z,-7
2023-02-25T03:03:03.195Z,-6
2023-02-25T03:04:09.473Z,-6
2023-02-25T03:05:15.747Z,-7
2023-02-25T03:06:22.026Z,-8
2023-02-25T03:07:27.308Z,-7
2023-02-25T03:08:32.615Z,-7
2023-02-25T03:09:37.900Z,-7
2023-02-25T03:10:43.188Z,-6
2023-02-25T03:11:49.464Z,-8
2023-02-25T03:12:55.725Z,-8
2023-02-25T03:14:02.001Z,-6
2023-02-25T03:15:08.273Z,-7
2023-02-25T03:16:14.528Z,-8
2023-02-25T03:17:20.817Z,-7
2023-02-25T03:18:27.086Z,-6
2023-02-25T03:19:33.425Z,-8
2023-02-25T03:20:39.653Z,-7
2023-02-25T03:21:45.940Z,-9
2023-02-25T03:22:52.211Z,-7
2023-02-25T03:23:57.482Z,-7
2023-02-25T03:25:03.755Z,-8
2023-02-25T03:26:10.009Z,-6
2023-02-25T03:27:16.323Z,-7
2023-02-25T03:28:22.575Z,-6
2023-02-25T03:29:28.841Z,-6
2023-02-25T03:30:35.124Z,-6
2023-02-25T03:31:41.393Z,-7
2023-02-25T03:32:46.781Z,-7
2023-02-25T03:33:51.977Z,-8
2023-02-25T03:34:58.246Z,-6
2023-02-25T03:36:03.553Z,-7
2023-02-25T03:37:08.841Z,-7
2023-02-25T03:38:15.190Z,-6
2023-02-25T03:39:21.374Z,-8
2023-02-25T03:40:27.666Z,-7
2023-02-25T03:41:33.920Z,-6
2023-02-25T03:42:40.197Z,-9
2023-02-25T03:43:46.481Z,-6
2023-02-25T03:44:52.745Z,-7
2023-02-25T03:45:59.012Z,-7
2023-02-25T03:47:05.291Z,-8
2023-02-25T03:48:11.554Z,-6
2023-02-25T03:49:17.895Z,-7
2023-02-25T03:50:24.093Z,-7
2023-02-25T03:51:29.391Z,-9
2023-02-25T03:52:35.810Z,-8
2023-02-25T03:53:41.965Z,-7
2023-02-25T03:54:48.208Z,-8
2023-02-25T03:55:54.475Z,-7
2023-02-25T03:57:00.741Z,-5
2023-02-25T03:58:07.017Z,-8
2023-02-25T03:59:12.311Z,-7
2023-02-25T04:00:17.612Z,-6
2023-02-25T04:01:23.867Z,-8
2023-02-25T04:02:29.167Z,-6
2023-02-25T04:03:34.505Z,-7
2023-02-25T04:04:40.743Z,-7
2023-02-25T04:05:47.012Z,-8
2023-02-25T04:06:53.278Z,-7
2023-02-25T04:07:59.548Z,-8
2023-02-25T04:09:05.820Z,-7
2023-02-25T04:10:12.103Z,-7
2023-02-25T04:11:18.363Z,-7
2023-02-25T04:12:24.636Z,-6
2023-02-25T04:13:30.902Z,-8
2023-02-25T04:14:37.181Z,-8
2023-02-25T04:15:43.454Z,-8
2023-02-25T04:16:49.737Z,-8
2023-02-25T04:17:54.998Z,-6
2023-02-25T04:19:01.316Z,-8
2023-02-25T04:20:07.557Z,-8
2023-02-25T04:21:13.829Z,-8
2023-02-25T04:22:20.117Z,-8
2023-02-25T04:23:26.409Z,-9
2023-02-25T04:24:32.650Z,-6
2023-02-25T04:25:37.944Z,-9
2023-02-25T04:26:43.241Z,-7
2023-02-25T04:27:48.608Z,-8
2023-02-25T04:28:53.864Z,-8
2023-02-25T04:30:00.099Z,-7
2023-02-25T04:31:06.357Z,-8
2023-02-25T04:32:12.648Z,-7
2023-02-25T04:33:18.919Z,-7
2023-02-25T04:34:25.180Z,-7
2023-02-25T04:35:31.460Z,-8
2023-02-25T04:36:37.746Z,-7
2023-02-25T04:37:43.992Z,-7
2023-02-25T04:38:50.267Z,-8
2023-02-25T04:39:56.548Z,-8
2023-02-25T04:41:02.870Z,-7
2023-02-25T04:42:09.093Z,-9
2023-02-25T04:43:14.384Z,-8
2023-02-25T04:44:20.658Z,-8
2023-02-25T04:45:26.924Z,-8
2023-02-25T04:46:33.221Z,-8
2023-02-25T04:47:39.470Z,-8
2023-02-25T04:48:45.727Z,-8
2023-02-25T04:49:52.009Z,-9
2023-02-25T04:50:57.303Z,-7
2023-02-25T04:52:02.615Z,-9
2023-02-25T04:53:07.904Z,-8
2023-02-25T04:54:13.179Z,-8
2023-02-25T04:55:19.453Z,-8
2023-02-25T04:56:25.736Z,-7
2023-02-25T04:57:32.001Z,-7
2023-02-25T04:58:38.271Z,-9
2023-02-25T04:59:44.535Z,-8
2023-02-25T05:00:50.836Z,-6
2023-02-25T05:01:57.093Z,-9
2023-02-25T05:03:03.356Z,-9
2023-02-25T05:04:09.627Z,-8
2023-02-25T05:05:15.898Z,-9
2023-02-25T05:06:22.173Z,-7
2023-02-25T05:07:28.447Z,-9
2023-02-25T05:08:33.734Z,-8
2023-02-25T05:09:40.009Z,-9
2023-02-25T05:10:46.281Z,-9
2023-02-25T05:11:52.552Z,-9
2023-02-25T05:12:58.903Z,-9
2023-02-25T05:14:05.158Z,-10
2023-02-25T05:15:11.374Z,-9
2023-02-25T05:16:16.659Z,-9
2023-02-25T05:17:21.963Z,-8
2023-02-25T05:18:28.229Z,-9
2023-02-25T05:19:33.569Z,-8
2023-02-25T05:20:38.842Z,-9
2023-02-25T05:21:45.081Z,-8
2023-02-25T05:22:51.360Z,-8
2023-02-25T05:23:57.635Z,-8
2023-02-25T05:25:03.908Z,-9
2023-02-25T05:26:10.176Z,-9
2023-02-25T05:27:16.449Z,-7
2023-02-25T05:28:22.727Z,-8
2023-02-25T05:29:28.989Z,-8
2023-02-25T05:30:35.262Z,-8
2023-02-25T05:31:41.550Z,-8
2023-02-25T05:32:47.809Z,-9
2023-02-25T05:33:54.077Z,-8
2023-02-25T05:34:59.460Z,-9
2023-02-25T05:36:05.657Z,-7
2023-02-25T05:37:11.916Z,-9
2023-02-25T05:38:18.189Z,-8
2023-02-25T05:39:24.460Z,-8
2023-02-25T05:40:30.745Z,-9
2023-02-25T05:41:37.006Z,-9
2023-02-25T05:42:42.298Z,-7
2023-02-25T05:43:47.618Z,-10
2023-02-25T05:44:52.912Z,-8
2023-02-25T05:45:58.199Z,-8
2023-02-25T05:47:04.457Z,-8
2023-02-25T05:48:10.716Z,-7
2023-02-25T05:49:17.053Z,-5
2023-02-25T05:50:23.282Z,-8
2023-02-25T05:51:29.538Z,-9
2023-02-25T05:52:35.807Z,-9
2023-02-25T05:53:42.088Z,-10
2023-02-25T05:54:48.358Z,-8
2023-02-25T05:55:54.625Z,-9
2023-02-25T05:57:00.901Z,-10
2023-02-25T05:58:07.166Z,-9
2023-02-25T05:59:13.464Z,-9
2023-02-25T06:00:18.785Z,-9
2023-02-25T06:01:25.011Z,-7
2023-02-25T06:02:31.276Z,-9
2023-02-25T06:03:37.567Z,-10
2023-02-25T06:04:43.811Z,-9
2023-02-25T06:05:50.097Z,-9
2023-02-25T06:06:56.415Z,-7
2023-02-25T06:08:01.666Z,-9
2023-02-25T06:09:07.014Z,-7
2023-02-25T06:10:13.221Z,-11
2023-02-25T06:11:18.519Z,-9
2023-02-25T06:12:23.813Z,-8
2023-02-25T06:13:30.081Z,-10
2023-02-25T06:14:36.360Z,-9
2023-02-25T06:15:42.644Z,-10
2023-02-25T06:16:48.902Z,-10
2023-02-25T06:17:55.176Z,-10
2023-02-25T06:19:01.448Z,-9
2023-02-25T06:20:07.707Z,-11
2023-02-25T06:21:13.989Z,-8
2023-02-25T06:22:20.265Z,-9
2023-02-25T06:23:26.563Z,-9
2023-02-25T06:24:32.807Z,-9
2023-02-25T06:25:39.070Z,-10
2023-02-25T06:26:44.364Z,-11
2023-02-25T06:27:50.639Z,-10
2023-02-25T06:28:56.893Z,-10
2023-02-25T06:30:03.184Z,-9
2023-02-25T06:31:09.494Z,-10
2023-02-25T06:32:15.724Z,-10
2023-02-25T06:33:22.008Z,-10
2023-02-25T06:34:27.298Z,-10
2023-02-25T06:35:32.592Z,-10
2023-02-25T06:36:38.863Z,-10
2023-02-25T06:37:45.171Z,-11
2023-02-25T06:38:51.404Z,-10
2023-02-25T06:39:57.675Z,-10
2023-02-25T06:41:03.946Z,-10
2023-02-25T06:42:10.222Z,-11
2023-02-25T06:43:16.500Z,-9
2023-02-25T06:44:22.760Z,-11
2023-02-25T06:45:29.043Z,-9
2023-02-25T06:46:35.310Z,-9
2023-02-25T06:47:41.577Z,-10
2023-02-25T06:48:47.872Z,-10
2023-02-25T06:49:53.323Z,-11
2023-02-25T06:50:59.422Z,-10
2023-02-25T06:52:05.689Z,-6
2023-02-25T06:53:11.967Z,-10
2023-02-25T06:54:18.255Z,-9
2023-02-25T06:55:24.502Z,-9
2023-02-25T06:56:30.847Z,-9
2023-02-25T06:57:36.077Z,-11
2023-02-25T06:58:41.530Z,-11
2023-02-25T06:59:46.663Z,-11
2023-02-25T07:00:51.951Z,-11
2023-02-25T07:01:58.224Z,-10
2023-02-25T07:03:04.489Z,-10
2023-02-25T07:04:10.760Z,-10
2023-02-25T07:05:16.068Z,-10
2023-02-25T07:06:22.435Z,-10
2023-02-25T07:07:28.600Z,-9
2023-02-25T07:08:34.875Z,-9
2023-02-25T07:09:41.153Z,-9
2023-02-25T07:10:47.414Z,-11
2023-02-25T07:11:53.702Z,-10
2023-02-25T07:12:59.982Z,-10
2023-02-25T07:14:06.256Z,-11
2023-02-25T07:15:12.503Z,-9
2023-02-25T07:16:18.763Z,-9
2023-02-25T07:17:25.078Z,-9
2023-02-25T07:18:31.308Z,-11
2023-02-25T07:19:36.614Z,-12
2023-02-25T07:20:42.917Z,-10
2023-02-25T07:21:49.166Z,-11
2023-02-25T07:22:54.477Z,-10
2023-02-25T07:23:59.742Z,-10
2023-02-25T07:25:06.020Z,-10
2023-02-25T07:26:11.367Z,-9
2023-02-25T07:27:16.609Z,-10
2023-02-25T07:28:22.878Z,-10
2023-02-25T07:29:29.167Z,-12
2023-02-25T07:30:35.429Z,-9
2023-02-25T07:31:41.685Z,-10
2023-02-25T07:32:47.970Z,-10
2023-02-25T07:33:54.226Z,-9
2023-02-25T07:35:00.600Z,-12
2023-02-25T07:36:06.833Z,-11
2023-02-25T07:37:13.053Z,-12
2023-02-25T07:38:19.321Z,-10
2023-02-25T07:39:25.594Z,-12
2023-02-25T07:40:31.873Z,-10
2023-02-25T07:41:37.201Z,-10
2023-02-25T07:42:43.424Z,-9
2023-02-25T07:43:49.707Z,-11
2023-02-25T07:44:55.970Z,-9
2023-02-25T07:46:02.271Z,-9
2023-02-25T07:47:08.523Z,-10
2023-02-25T07:48:14.820Z,-11
2023-02-25T07:49:20.104Z,-11
2023-02-25T07:50:25.371Z,-10
2023-02-25T07:51:31.649Z,-11
2023-02-25T07:52:37.930Z,-10
2023-02-25T07:53:44.197Z,-9
2023-02-25T07:54:50.469Z,-9
2023-02-25T07:55:56.737Z,-9
2023-02-25T07:57:03.012Z,-10
2023-02-25T07:58:09.281Z,-9
2023-02-25T07:59:15.554Z,-9
2023-02-25T08:00:21.824Z,-10
2023-02-25T08:01:28.128Z,-9
2023-02-25T08:02:34.390Z,-9
2023-02-25T08:03:40.679Z,-14
2023-02-25T08:04:47.006Z,-9
2023-02-25T08:05:52.236Z,-9
2023-02-25T08:06:58.590Z,-9
2023-02-25T08:08:04.765Z,-9
2023-02-25T08:09:11.020Z,-10
2023-02-25T08:10:17.298Z,-10
2023-02-25T08:11:23.562Z,-9
2023-02-25T08:12:28.941Z,-9
2023-02-25T08:13:34.155Z,-10
2023-02-25T08:14:39.445Z,-10
2023-02-25T08:15:44.735Z,-9
2023-02-25T08:16:51.017Z,-9
2023-02-25T08:17:57.298Z,-9
2023-02-25T08:19:03.583Z,-9
2023-02-25T08:20:09.829Z,-9
2023-02-25T08:21:16.116Z,-11
2023-02-25T08:22:22.441Z,-9
2023-02-25T08:23:28.634Z,-9
2023-02-25T08:24:34.964Z,-9
2023-02-25T08:25:41.198Z,-9
2023-02-25T08:26:47.488Z,-9
2023-02-25T08:27:53.745Z,-8
2023-02-25T08:29:00.008Z,-9
2023-02-25T08:30:05.346Z,-9
2023-02-25T08:31:11.575Z,-9
2023-02-25T08:32:17.835Z,-10
2023-02-25T08:33:24.111Z,-9
2023-02-25T08:34:30.438Z,-9
2023-02-25T08:35:36.665Z,-9
2023-02-25T08:36:42.947Z,-8
2023-02-25T08:37:48.225Z,-9
2023-02-25T08:38:53.533Z,-8
2023-02-25T08:39:58.872Z,-9
2023-02-25T08:41:05.151Z,-9
2023-02-25T08:42:10.376Z,-7
2023-02-25T08:43:16.722Z,-9
2023-02-25T08:44:22.967Z,-8
2023-02-25T08:45:29.236Z,-8
2023-02-25T08:46:35.522Z,-8
2023-02-25T08:47:41.799Z,-7
2023-02-25T08:48:48.003Z,-7
2023-02-25T08:49:54.303Z,-7
2023-02-25T08:51:00.547Z,-8
2023-02-25T08:52:06.887Z,-7
2023-02-25T08:53:13.108Z,-9
2023-02-25T08:54:19.392Z,-8
2023-02-25T08:55:25.638Z,-6
2023-02-25T08:56:31.989Z,-6
2023-02-25T08:57:37.185Z,-8
2023-02-25T08:58:43.465Z,-10
2023-02-25T08:59:49.771Z,-9
2023-02-25T09:00:56.011Z,-8
2023-02-25T09:02:02.307Z,-8
2023-02-25T09:03:07.595Z,-7
2023-02-25T09:04:12.882Z,-9
2023-02-25T09:05:18.166Z,-9
2023-02-25T09:06:23.454Z,-7
2023-02-25T09:07:29.762Z,-5
2023-02-25T09:08:36.002Z,-7
2023-02-25T09:09:42.302Z,-8
2023-02-25T09:10:48.541Z,-7
2023-02-25T09:11:54.856Z,-9
2023-02-25T09:13:01.094Z,-8
2023-02-25T09:14:07.446Z,-7
2023-02-25T09:15:13.626Z,-8
2023-02-25T09:16:19.905Z,-9
2023-02-25T09:17:26.174Z,-7
2023-02-25T09:18:32.444Z,-9
2023-02-25T09:19:38.724Z,-8
2023-02-25T09:20:44.009Z,-7
2023-02-25T09:21:50.288Z,-7
2023-02-25T09:22:56.566Z,-7
2023-02-25T09:24:02.836Z,-7
2023-02-25T09:25:09.110Z,-8
2023-02-25T09:26:15.370Z,-9
2023-02-25T09:27:21.635Z,-7
2023-02-25T09:28:26.966Z,-6
2023-02-25T09:29:32.228Z,-7
2023-02-25T09:30:37.605Z,-7
2023-02-25T09:31:42.813Z,-5
2023-02-25T09:32:49.090Z,-7
2023-02-25T09:33:55.363Z,-6
2023-02-25T09:35:01.625Z,-6
2023-02-25T09:36:07.905Z,-6
2023-02-25T09:37:14.171Z,-7
2023-02-25T09:38:20.447Z,-7
2023-02-25T09:39:26.720Z,-7
2023-02-25T09:40:32.996Z,-6
2023-02-25T09:41:39.313Z,-7
2023-02-25T09:42:45.533Z,-8
2023-02-25T09:43:51.810Z,-7
2023-02-25T09:44:58.077Z,-7
2023-02-25T09:46:03.375Z,-8
2023-02-25T09:47:09.753Z,-7
2023-02-25T09:48:15.908Z,-6
2023-02-25T09:49:22.194Z,-7
2023-02-25T09:50:28.571Z,-9
2023-02-25T09:51:34.727Z,-7
2023-02-25T09:52:41.018Z,-8
2023-02-25T09:53:46.300Z,-8
2023-02-25T09:54:51.620Z,-7
2023-02-25T09:55:56.912Z,-7
2023-02-25T09:57:02.173Z,-8
2023-02-25T09:58:08.497Z,-8
2023-02-25T09:59:14.720Z,-7
2023-02-25T10:00:20.991Z,-8
2023-02-25T10:01:27.261Z,-6
2023-02-25T10:02:33.531Z,-6
2023-02-25T10:03:39.824Z,-8
2023-02-25T10:04:46.119Z,-6
2023-02-25T10:05:52.427Z,-7
2023-02-25T10:06:58.632Z,-6
2023-02-25T10:08:04.906Z,-8
2023-02-25T10:09:11.167Z,-6
2023-02-25T10:10:17.443Z,-7
2023-02-25T10:11:22.801Z,-6
2023-02-25T10:12:28.997Z,-5
2023-02-25T10:13:35.283Z,-6
2023-02-25T10:14:41.579Z,-6
2023-02-25T10:15:47.828Z,-7
2023-02-25T10:16:54.102Z,-4
2023-02-25T10:18:00.425Z,-7
2023-02-25T10:19:05.729Z,-6
2023-02-25T10:20:10.950Z,-4
2023-02-25T10:21:17.306Z,-6
2023-02-25T10:22:22.578Z,-6
2023-02-25T10:23:27.809Z,-6
2023-02-25T10:24:34.133Z,-5
2023-02-25T10:25:40.366Z,-6
2023-02-25T10:26:46.623Z,-4
2023-02-25T10:27:52.906Z,-6
2023-02-25T10:28:59.168Z,-6
2023-02-25T10:30:05.448Z,-6
2023-02-25T10:31:11.818Z,-8
2023-02-25T10:32:17.981Z,-6
2023-02-25T10:33:24.274Z,-6
2023-02-25T10:34:30.536Z,-7
2023-02-25T10:35:36.838Z,-6
2023-02-25T10:36:43.076Z,-5
2023-02-25T10:37:48.388Z,-7
2023-02-25T10:38:54.727Z,-6
2023-02-25T10:40:00.907Z,-6
2023-02-25T10:41:07.217Z,-7
2023-02-25T10:42:13.442Z,-6
2023-02-25T10:43:19.728Z,-7
2023-02-25T10:44:26.038Z,-7
2023-02-25T10:45:32.383Z,-6
2023-02-25T10:46:37.584Z,-8
2023-02-25T10:47:42.979Z,-7
2023-02-25T10:48:49.151Z,-6
2023-02-25T10:49:54.437Z,-6
2023-02-25T10:50:59.720Z,-6
2023-02-25T10:52:06.231Z,-6
2023-02-25T10:53:12.277Z,-6
2023-02-25T10:54:18.711Z,-6
2023-02-25T10:55:25.011Z,-6
2023-02-25T10:56:31.260Z,-7
2023-02-25T10:57:37.555Z,-6
2023-02-25T10:58:43.787Z,-6
2023-02-25T10:59:50.044Z,-6
2023-02-25T11:00:56.348Z,-6
2023-02-25T11:02:02.690Z,-6
2023-02-25T11:03:08.749Z,-9
2023-02-25T11:04:15.122Z,-6
2023-02-25T11:05:20.509Z,-8
2023-02-25T11:06:26.760Z,-6
2023-02-25T11:07:32.818Z,-7
2023-02-25T11:08:39.140Z,-6
2023-02-25T11:09:45.500Z,-5
2023-02-25T11:10:51.804Z,-6
2023-02-25T11:11:58.116Z,-6
2023-02-25T11:13:03.399Z,-6
2023-02-25T11:14:09.560Z,-6
2023-02-25T11:15:15.886Z,-6
2023-02-25T11:16:21.195Z,-7
2023-02-25T11:17:27.388Z,-6
2023-02-25T11:18:33.750Z,-6
2023-02-25T11:19:39.943Z,-6
2023-02-25T11:20:46.127Z,-7
2023-02-25T11:21:52.549Z,-5
2023-02-25T11:22:58.740Z,-6
2023-02-25T11:24:05.071Z,-6
2023-02-25T11:26:17.652Z,-5
2023-02-25T11:27:23.867Z,-5
2023-02-25T11:28:30.101Z,-5
2023-02-25T11:29:36.466Z,-3
2023-02-25T11:30:41.794Z,-4
2023-02-25T11:31:48.020Z,-5
2023-02-25T11:32:54.324Z,-6
2023-02-25T11:34:00.596Z,-5
2023-02-25T11:35:06.678Z,-4
2023-02-25T11:36:13.105Z,-5
2023-02-25T11:37:18.250Z,-4
2023-02-25T11:38:23.621Z,-4
2023-02-25T11:39:29.015Z,-3
2023-02-25T11:40:34.284Z,-5
2023-02-25T11:41:39.501Z,-5
2023-02-25T11:42:44.807Z,-7
2023-02-25T11:43:51.175Z,-3
2023-02-25T11:44:57.347Z,-5
2023-02-25T11:46:03.700Z,-3
2023-02-25T11:47:09.947Z,-3
2023-02-25T11:48:16.116Z,-6
2023-02-25T11:49:22.497Z,-4
2023-02-25T11:50:28.778Z,-3
2023-02-25T11:51:35.098Z,-3
2023-02-25T11:52:41.207Z,-3
2023-02-25T11:53:47.451Z,-5
2023-02-25T11:54:53.855Z,-3
2023-02-25T11:56:00.090Z,-5
2023-02-25T11:57:05.262Z,-4
2023-02-25T11:58:11.730Z,-3
2023-02-25T11:59:17.957Z,-4
2023-02-25T12:00:24.104Z,-4
2023-02-25T12:01:30.411Z,-4
2023-02-25T12:02:36.732Z,-5
2023-02-25T12:03:43.015Z,-4
2023-02-25T12:04:48.242Z,-3
2023-02-25T12:05:54.557Z,-4
2023-02-25T12:07:00.783Z,-3
2023-02-25T12:08:06.061Z,-4
2023-02-25T12:09:11.380Z,-3
2023-02-25T12:10:17.707Z,-4
2023-02-25T12:11:24.030Z,-3
2023-02-25T12:12:30.278Z,-3
2023-02-25T12:13:36.573Z,-4
2023-02-25T12:14:42.711Z,-4
2023-02-25T12:15:49.176Z,-3
2023-02-25T12:16:55.384Z,-5
2023-02-25T12:18:01.618Z,-3
2023-02-25T12:19:07.903Z,-4
2023-02-25T12:20:14.039Z,-4
2023-02-25T12:21:20.450Z,-5
2023-02-25T12:22:26.609Z,-5
2023-02-25T12:23:31.951Z,-4
2023-02-25T12:24:38.217Z,-4
2023-02-25T12:25:44.422Z,-5
2023-02-25T12:26:50.702Z,-4
2023-02-25T12:27:56.963Z,-5
2023-02-25T12:29:03.231Z,-4
2023-02-25T12:30:09.514Z,-5
2023-02-25T12:31:15.780Z,-6
2023-02-25T12:32:21.094Z,-5
2023-02-25T12:33:26.366Z,-3
2023-02-25T12:34:31.761Z,-5
2023-02-25T12:35:37.096Z,-6
2023-02-25T12:36:43.282Z,-5
2023-02-25T12:37:49.494Z,-6
2023-02-25T12:38:55.855Z,-6
2023-02-25T12:40:02.029Z,-5
2023-02-25T12:41:08.310Z,-5
2023-02-25T12:42:14.613Z,-4
2023-02-25T12:43:20.862Z,-5
2023-02-25T12:44:27.133Z,-6
2023-02-25T12:45:33.388Z,-4
2023-02-25T12:46:39.681Z,-4
2023-02-25T12:47:45.938Z,-5
2023-02-25T12:48:52.217Z,-5
2023-02-25T12:49:57.501Z,-4
2023-02-25T12:51:03.771Z,-5
2023-02-25T12:52:10.038Z,-4
2023-02-25T12:53:16.318Z,-6
2023-02-25T12:54:22.698Z,-6
2023-02-25T12:55:28.851Z,-6
2023-02-25T12:56:35.137Z,-6
2023-02-25T12:57:40.451Z,-5
2023-02-25T12:58:45.736Z,-6
2023-02-25T12:59:51.022Z,-6
2023-02-25T13:00:57.290Z,-5
2023-02-25T13:02:03.576Z,-7
2023-02-25T13:03:08.854Z,-7
2023-02-25T13:04:15.119Z,-7
2023-02-25T13:05:21.393Z,-6
2023-02-25T13:06:27.661Z,-3
2023-02-25T13:07:33.929Z,-6
2023-02-25T13:08:40.232Z,-6
2023-02-25T13:09:46.491Z,-7
2023-02-25T13:10:52.748Z,-5
2023-02-25T13:11:59.020Z,-6
2023-02-25T13:13:05.296Z,-4
2023-02-25T13:14:11.629Z,-5
2023-02-25T13:15:17.847Z,-3
2023-02-25T13:16:24.114Z,-3
2023-02-25T13:17:29.401Z,-3
2023-02-25T13:18:35.677Z,-3
2023-02-25T13:19:41.961Z,-3
2023-02-25T13:20:48.217Z,-3
2023-02-25T13:21:54.492Z,-3
2023-02-25T13:22:59.790Z,-3
2023-02-25T13:24:06.067Z,-3
2023-02-25T13:25:11.473Z,-3
2023-02-25T13:26:17.616Z,-4
2023-02-25T13:27:22.918Z,-6
2023-02-25T13:28:28.216Z,-4
2023-02-25T13:29:34.484Z,-3
2023-02-25T13:30:40.745Z,-5
2023-02-25T13:31:47.021Z,-4
2023-02-25T13:32:53.314Z,-3
2023-02-25T13:33:59.570Z,-6
2023-02-25T13:35:05.838Z,-4
2023-02-25T13:36:12.113Z,-3
2023-02-25T13:37:18.387Z,-3
2023-02-25T13:38:24.648Z,-3
2023-02-25T13:39:30.979Z,-3
2023-02-25T13:40:37.199Z,-3
2023-02-25T13:41:43.493Z,-3
2023-02-25T13:42:48.770Z,-3
2023-02-25T13:43:55.039Z,-3
2023-02-25T13:45:01.301Z,-4
2023-02-25T13:46:07.579Z,-4
2023-02-25T13:47:13.903Z,-4
2023-02-25T13:48:20.119Z,-4
2023-02-25T13:49:26.383Z,-6
2023-02-25T13:50:31.691Z,-3
2023-02-25T13:51:36.984Z,-4
2023-02-25T13:52:42.346Z,-4
2023-02-25T13:53:47.559Z,-3
2023-02-25T13:54:53.854Z,-3
2023-02-25T13:56:00.109Z,-4
2023-02-25T13:57:06.373Z,-3
2023-02-25T13:58:12.675Z,-3
2023-02-25T13:59:19.109Z,-2
2023-02-25T14:00:25.200Z,-3
2023-02-25T14:01:31.459Z,-3
2023-02-25T14:02:37.763Z,-1
2023-02-25T14:03:44.040Z,-3
2023-02-25T14:04:50.300Z,-3
2023-02-25T14:05:56.549Z,-3
2023-02-25T14:07:02.831Z,-2
2023-02-25T14:08:08.123Z,-3
2023-02-25T14:09:14.389Z,-3
2023-02-25T14:10:20.653Z,-3
2023-02-25T14:11:26.935Z,-3
2023-02-25T14:12:33.209Z,-3
2023-02-25T14:13:39.486Z,-3
2023-02-25T14:14:45.745Z,-3
2023-02-25T14:15:51.053Z,-2
2023-02-25T14:16:56.406Z,-3
2023-02-25T14:18:01.635Z,-3
2023-02-25T14:19:06.949Z,-3
2023-02-25T14:20:13.206Z,-3
2023-02-25T14:21:19.461Z,-4
2023-02-25T14:22:25.800Z,-3
2023-02-25T14:23:32.087Z,-4
2023-02-25T14:24:38.272Z,-4
2023-02-25T14:25:44.570Z,-3
2023-02-25T14:26:50.912Z,-4
2023-02-25T14:27:56.115Z,-4
2023-02-25T14:29:02.398Z,-4
2023-02-25T14:30:08.669Z,-3
2023-02-25T14:31:14.949Z,-4
2023-02-25T14:32:21.367Z,-4
2023-02-25T14:33:27.592Z,-3
2023-02-25T14:34:33.878Z,-3
2023-02-25T14:35:40.018Z,-4
2023-02-25T14:36:46.298Z,-4
2023-02-25T14:37:52.565Z,-6
2023-02-25T14:38:58.835Z,-5
2023-02-25T14:40:05.113Z,-6
2023-02-25T14:41:10.432Z,-5
2023-02-25T14:42:15.702Z,-6
2023-02-25T14:43:21.000Z,-6
2023-02-25T14:44:26.276Z,-4
2023-02-25T14:45:32.594Z,-5
2023-02-25T14:46:38.827Z,-6
2023-02-25T14:47:45.095Z,-5
2023-02-25T14:48:51.370Z,-5
2023-02-25T14:49:57.639Z,-6
2023-02-25T14:51:03.905Z,-6
2023-02-25T14:52:10.182Z,-6
2023-02-25T14:53:16.462Z,-5
2023-02-25T14:54:22.925Z,-6
2023-02-25T14:55:28.999Z,-4
2023-02-25T14:56:35.366Z,-5
2023-02-25T14:57:41.543Z,-6
2023-02-25T14:58:46.862Z,-5
2023-02-25T14:59:53.129Z,-6
2023-02-25T15:00:59.375Z,-5
2023-02-25T15:02:05.662Z,-5
2023-02-25T15:03:11.953Z,-6
2023-02-25T15:04:18.194Z,-6
2023-02-25T15:05:24.457Z,-6
2023-02-25T15:06:29.809Z,-6
2023-02-25T15:07:35.091Z,-4
2023-02-25T15:08:40.346Z,-7
2023-02-25T15:09:45.700Z,-6
2023-02-25T15:10:51.967Z,-6
2023-02-25T15:11:58.191Z,-3
2023-02-25T15:13:04.457Z,-6
2023-02-25T15:14:10.732Z,-5
2023-02-25T15:15:16.995Z,-3
2023-02-25T15:16:23.263Z,-6
2023-02-25T15:17:29.540Z,-6
2023-02-25T15:18:35.808Z,-6
2023-02-25T15:19:42.082Z,-5
2023-02-25T15:20:48.357Z,-5
2023-02-25T15:21:54.629Z,-8
2023-02-25T15:23:00.919Z,-6
2023-02-25T15:24:06.210Z,-6
2023-02-25T15:25:12.453Z,-6
2023-02-25T15:26:18.729Z,-5
2023-02-25T15:27:25.000Z,-6
2023-02-25T15:28:31.310Z,-6
2023-02-25T15:29:37.572Z,-6
2023-02-25T15:30:43.824Z,-6
2023-02-25T15:31:49.188Z,-6
2023-02-25T15:32:54.447Z,-7
2023-02-25T15:33:59.695Z,-5
2023-02-25T15:35:05.061Z,-7
2023-02-25T15:36:11.255Z,-7
2023-02-25T15:37:17.550Z,-6
2023-02-25T15:38:23.816Z,-7
2023-02-25T15:39:30.077Z,-7